• Join FlightAware (Why Join?)
  • Login
  • US Flag 
06:19AM EDT


 

Airport Tracker/Info


-or-


 

Live Flight TrackerFlight Track Log ✈ N977SB ✈ 22-Nov-2013 ✈ KHYI - KFTW

Flight Track Log - Related Links

Times and Time Zones

All times are in EST time to prevent confusion due to time zone crossing. See the N977SB flight status page for this flight to view local times or setup timezone preferences in your user account.

Time Position Orientation Groundspeed Altitude Reporting Facility
EST Latitude Longitude Course Direction KTS MPH feet Rate Location/Type
03:27PM 29.9681 -97.8964 348° North 152 175 3,600  Level Fort Worth Center
03:28PM 29.9972 -97.9436 306° West 165 190 4,300 1,200 Climbing Fort Worth Center
03:29PM 30.0378 -97.9939 313° West 170 196 6,400 1,500 Climbing Houston Center
03:30PM 30.0797 -98.0161 335° Northwest 165 190 7,700 1,260 Climbing Houston Center
03:31PM 30.2288 -97.8070 355° North  Level Estimated
03:31PM 30.1303 -98.0231 353° North 171 197 9,100  Level Houston Center
03:32PM 30.2841 -97.8208 348° North  Level FlightAware Approximate
03:32PM 30.1794 -98.0286 354° North 176 203 10,100  Level Houston Center
03:33PM 30.2350 -98.0350 354° North 188 216 11,300 1,020 Climbing Houston Center
03:34PM 30.2869 -98.0403 355° North 187 215 12,300 960 Climbing Houston Center
03:35PM 30.3389 -98.0461 354° North 184 212 13,400 900 Climbing Houston Center
03:36PM 30.3897 -98.0517 355° North 183 211 14,200 840 Climbing Houston Center
03:37PM 30.4392 -98.0572 354° North 178 205 15,200 900 Climbing Houston Center
03:38PM 30.4881 -98.0614 356° North 174 200 16,100 720 Climbing Houston Center
03:39PM 30.5386 -98.0669 355° North 179 206 16,700 720 Climbing Houston Center
03:40PM 30.6008 -98.0733 355° North 186 214 17,700 540 Climbing Houston Center
03:41PM 30.6536 -98.0794 354° North 188 216 17,900 420 Climbing Houston Center
03:42PM 30.7064 -98.0842 356° North 189 217 18,600 540 Climbing Houston Center
03:43PM 30.7561 -98.0908 353° North 182 209 19,100 420 Climbing Houston Center
03:44PM 30.8086 -98.0978 354° North 184 212 19,500 360 Climbing Houston Center
03:45PM 30.8631 -98.1028 355° North 190 219 19,900 240 Climbing Houston Center
03:46PM 30.9178 -98.1097 354° North 194 223 20,000  Climbing Houston Center
03:47PM 30.9781 -98.1164 355° North 208 239 20,000  Level Houston Center
03:49PM 31.0525 -98.1239 355° North 222 255 20,000  Level Houston Center
03:50PM 31.1167 -98.1317 354° North 227 261 20,000  Level Houston Center
03:50PM 31.1694 -98.1394 353° North 231 266 20,000  Level Fort Worth Center
03:51PM 31.2350 -98.1264 10° North 237 273 20,000  Level Fort Worth Center
03:52PM 31.3006 -98.1056 15° North 241 277 20,000  Level Fort Worth Center
03:53PM 31.3667 -98.0850 15° North 243 280 20,000  Level Fort Worth Center
03:54PM 31.4331 -98.0639 15° North 245 282 20,000  Level Fort Worth Center
03:56PM 31.4986 -98.0425 16° North 242 278 20,000 -480 Level Fort Worth Center
03:57PM 31.5683 -98.0214 14° North 253 291 19,100 -960 Descending Fort Worth Center
03:58PM 31.6414 -97.9972 16° North 270 311 18,100 -720 Descending Fort Worth Center
03:59PM 31.7144 -97.9733 16° North 270 311 17,700 -720 Descending Fort Worth Center
04:00PM 31.7978 -97.9469 15° North 264 304 16,700 -960 Descending Fort Worth Center
04:01PM 31.8692 -97.9247 15° North 263 303 15,800 -900 Descending Fort Worth Center
04:02PM 31.9389 -97.9019 15° North 259 298 14,900 -1,140 Descending Fort Worth Center
04:03PM 32.0139 -97.8783 15° North 257 296 13,500 -1,620 Descending Fort Worth Center
04:04PM 32.0822 -97.8567 15° North 252 290 11,700 -1,680 Descending Fort Worth Center
04:05PM 32.1469 -97.8342 16° North 242 278 10,100 -1,560 Descending Fort Worth Center
04:06PM 32.2169 -97.8114 15° North 241 277 8,500 -1,560 Descending Fort Worth Center
04:07PM 32.2794 -97.7914 15° North 233 268 6,900 -1,560 Descending Fort Worth Center
04:08PM 32.3469 -97.7708 14° North 230 265 5,300 -1,140 Descending Fort Worth Center
04:09PM 32.4019 -97.7425 24° Northeast 212 244 4,600 -660 Descending Fort Worth Center
04:10PM 32.4461 -97.7033 37° Northeast 198 228 4,000 -300 Descending Fort Worth Center
04:11PM 32.4914 -97.6647 36° Northeast 188 216 4,000  Level Fort Worth Center
04:12PM 32.5297 -97.6194 45° Northeast 193 222 4,000  Level Fort Worth Center
04:13PM 32.5614 -97.5708 52° Northeast 187 215 4,000  Level Fort Worth Center
04:14PM 32.5942 -97.5222 51° Northeast 176 203 4,000 -360 Level Fort Worth Center
04:15PM 32.6206 -97.4778 55° Northeast 165 190 3,300 -540 Descending Fort Worth Center
04:16PM 32.6400 -97.4300 64° Northeast 151 174 3,000 -300 Descending Fort Worth Center
04:17PM 32.6586 -97.3872 63° Northeast 147 169 2,700 -300 Descending Fort Worth Center
04:18PM 32.6814 -97.3483 55° Northeast 147 169 2,500 -300 Descending Fort Worth Center
04:19PM 32.7142 -97.3461 North 113 130 2,100 -180 Descending Fort Worth Center
04:20PM 32.7422 -97.3481 357° North 101 116 2,200 -300 Climbing Fort Worth Center
04:21PM 32.7753 -97.3547 350° North 110 127 1,500 -540 Descending Fort Worth Center
04:22PM 32.7956 -97.3572 354° North 105 121 1,100 -420 Descending Fort Worth Center